createdAt,value
2023-04-06T00:00:04.951Z,968.0100
2023-04-06T00:01:05.107Z,967.9900
2023-04-06T00:02:07.518Z,967.9900
2023-04-06T00:03:09.726Z,967.9900
2023-04-06T00:04:12.104Z,967.9700
2023-04-06T00:05:14.304Z,967.9700
2023-04-06T00:06:17.232Z,967.9900
2023-04-06T00:07:18.931Z,967.9900
2023-04-06T00:08:19.107Z,968.0100
2023-04-06T00:09:21.452Z,967.9900
2023-04-06T00:10:24.048Z,967.9900
2023-04-06T00:11:26.050Z,967.9700
2023-04-06T00:12:26.223Z,967.9700
2023-04-06T00:13:28.540Z,967.9700
2023-04-06T00:14:30.987Z,967.9300
2023-04-06T00:15:33.246Z,967.9500
2023-04-06T00:16:35.647Z,967.9500
2023-04-06T00:17:37.924Z,967.9500
2023-04-06T00:18:38.063Z,968.0100
2023-04-06T00:19:40.427Z,967.9900
2023-04-06T00:20:42.786Z,968.0100
2023-04-06T00:21:45.166Z,967.9700
2023-04-06T00:22:45.310Z,967.9700
2023-04-06T00:23:47.648Z,967.9500
2023-04-06T00:24:56.700Z,967.9700
2023-04-06T00:27:03.361Z,967.9300
2023-04-06T00:28:05.667Z,967.9100
2023-04-06T00:29:08.304Z,967.9100
2023-04-06T00:30:10.333Z,967.8900
2023-04-06T00:31:12.643Z,967.9100
2023-04-06T00:32:12.818Z,967.8900
2023-04-06T00:33:15.084Z,967.9100
2023-04-06T00:34:17.364Z,967.8900
2023-04-06T00:35:19.685Z,967.9100
2023-04-06T00:36:22.012Z,967.8900
2023-04-06T00:37:24.252Z,967.8900
2023-04-06T00:38:24.408Z,967.9100
2023-04-06T00:39:26.690Z,967.8900
2023-04-06T00:40:29.031Z,967.8900
2023-04-06T00:41:31.319Z,967.8700
2023-04-06T00:42:33.633Z,967.8700
2023-04-06T00:43:35.928Z,967.8700
2023-04-06T00:44:38.253Z,967.8700
2023-04-06T00:45:38.556Z,967.8700
2023-04-06T00:46:40.713Z,967.8700
2023-04-06T00:47:43.074Z,967.8500
2023-04-06T00:48:45.434Z,967.8500
2023-04-06T00:49:47.760Z,967.8500
2023-04-06T00:50:47.980Z,967.8500
2023-04-06T00:51:50.304Z,967.8300
2023-04-06T00:52:52.653Z,967.8500
2023-04-06T00:53:54.992Z,967.8300
2023-04-06T00:54:57.350Z,967.8500
2023-04-06T00:55:57.619Z,967.8300
2023-04-06T00:56:59.923Z,967.8300
2023-04-06T00:58:02.263Z,967.8200
2023-04-06T00:59:04.642Z,967.8300
2023-04-06T01:00:06.977Z,967.8200
2023-04-06T01:01:07.398Z,967.7800
2023-04-06T01:02:09.557Z,967.8000
2023-04-06T01:03:11.923Z,967.8000
2023-04-06T01:04:14.288Z,967.7800
2023-04-06T01:05:14.481Z,967.7800
2023-04-06T01:06:16.799Z,967.7800
2023-04-06T01:07:19.147Z,967.7600
2023-04-06T01:08:21.495Z,967.7400
2023-04-06T01:09:23.881Z,967.7400
2023-04-06T01:10:24.111Z,967.7600
2023-04-06T01:11:26.677Z,967.7400
2023-04-06T01:12:28.894Z,967.7200
2023-04-06T01:13:31.260Z,967.7200
2023-04-06T01:14:31.469Z,967.7200
2023-04-06T01:15:33.864Z,967.7200
2023-04-06T01:16:36.294Z,967.7400
2023-04-06T01:17:38.499Z,967.7000
2023-04-06T01:18:40.794Z,967.7200
2023-04-06T01:19:41.038Z,967.7200
2023-04-06T01:20:43.370Z,967.6800
2023-04-06T01:21:45.858Z,967.6800
2023-04-06T01:22:48.054Z,967.6600
2023-04-06T01:23:50.378Z,967.6600
2023-04-06T01:24:50.506Z,967.6400
2023-04-06T01:25:52.774Z,967.6600
2023-04-06T01:26:55.164Z,967.6600
2023-04-06T01:27:57.373Z,967.6400
2023-04-06T01:28:59.620Z,967.6800
2023-04-06T01:30:01.861Z,967.6800
2023-04-06T01:31:04.157Z,967.6800
2023-04-06T01:32:06.364Z,967.6800
2023-04-06T01:33:08.679Z,967.6600
2023-04-06T01:34:08.674Z,967.6600
2023-04-06T01:35:10.952Z,967.6600
2023-04-06T01:36:13.209Z,967.6400
2023-04-06T01:37:15.468Z,967.6400
2023-04-06T01:38:15.629Z,967.6400
2023-04-06T01:39:17.884Z,967.6400
2023-04-06T01:40:20.170Z,967.6400
2023-04-06T01:41:20.264Z,967.6600
2023-04-06T01:42:22.568Z,967.6400
2023-04-06T01:43:24.824Z,967.6000
2023-04-06T01:44:27.139Z,967.5800
2023-04-06T01:45:29.452Z,967.5600
2023-04-06T01:46:31.785Z,967.6000
2023-04-06T01:47:34.140Z,967.5800
2023-04-06T01:48:34.181Z,967.5600
2023-04-06T01:49:36.496Z,967.5600
2023-04-06T01:50:38.865Z,967.5400
2023-04-06T01:51:41.092Z,967.5800
2023-04-06T01:53:28.755Z,967.5800
2023-04-06T01:54:30.902Z,967.5600
2023-04-06T01:55:33.191Z,967.5600
2023-04-06T01:56:35.500Z,967.5800
2023-04-06T01:57:35.640Z,967.5800
2023-04-06T01:58:37.961Z,967.5600
2023-04-06T01:59:40.266Z,967.5600
2023-04-06T02:00:42.600Z,967.5400
2023-04-06T02:01:44.894Z,967.5400
2023-04-06T02:02:47.245Z,967.5400
2023-04-06T02:03:47.505Z,967.5200
2023-04-06T02:04:49.693Z,967.5200
2023-04-06T02:05:52.052Z,967.5000
2023-04-06T02:06:54.304Z,967.5200
2023-04-06T02:07:56.602Z,967.5400
2023-04-06T02:08:59.056Z,967.5200
2023-04-06T02:09:59.159Z,967.5200
2023-04-06T02:11:01.492Z,967.5400
2023-04-06T02:12:03.780Z,967.5400
2023-04-06T02:13:06.080Z,967.5400
2023-04-06T02:14:08.570Z,967.5400
2023-04-06T02:15:08.650Z,967.5600
2023-04-06T02:16:11.043Z,967.5600
2023-04-06T02:17:13.347Z,967.5600
2023-04-06T02:18:15.662Z,967.5400
2023-04-06T02:19:18.018Z,967.5400
2023-04-06T02:20:20.291Z,967.5400
2023-04-06T02:21:20.517Z,967.5200
2023-04-06T02:22:22.838Z,967.5000
2023-04-06T02:23:25.146Z,967.5000
2023-04-06T02:24:27.568Z,967.5000
2023-04-06T02:25:29.818Z,967.4600
2023-04-06T02:26:32.082Z,967.5000
2023-04-06T02:27:32.235Z,967.5000
2023-04-06T02:28:34.605Z,967.4800
2023-04-06T02:29:36.948Z,967.4800
2023-04-06T02:30:39.238Z,967.5000
2023-04-06T02:31:39.462Z,967.5000
2023-04-06T02:32:41.879Z,967.4800
2023-04-06T02:33:44.202Z,967.5000
2023-04-06T02:34:46.601Z,967.5000
2023-04-06T02:35:49.038Z,967.5200
2023-04-06T02:36:49.248Z,967.5400
2023-04-06T02:37:51.646Z,967.5400
2023-04-06T02:38:54.032Z,967.5400
2023-04-06T02:39:56.553Z,967.5200
2023-04-06T02:40:56.629Z,967.5400
2023-04-06T02:41:59.010Z,967.5200
2023-04-06T02:43:01.389Z,967.5200
2023-04-06T02:44:03.774Z,967.5000
2023-04-06T02:45:04.077Z,967.5000
2023-04-06T02:46:06.421Z,967.5000
2023-04-06T02:47:08.718Z,967.5200
2023-04-06T02:48:11.046Z,967.5000
2023-04-06T02:49:13.432Z,967.5200
2023-04-06T02:50:13.740Z,967.5000
2023-04-06T02:51:16.047Z,967.5200
2023-04-06T02:52:18.413Z,967.5200
2023-04-06T02:53:20.773Z,967.5000
2023-04-06T02:54:21.024Z,967.5200
2023-04-06T02:55:23.555Z,967.5000
2023-04-06T02:56:25.839Z,967.4800
2023-04-06T02:57:28.154Z,967.4800
2023-04-06T02:58:30.548Z,967.4800
2023-04-06T02:59:30.876Z,967.4800
2023-04-06T03:00:33.166Z,967.5000
2023-04-06T03:01:35.518Z,967.5000
2023-04-06T03:02:38.024Z,967.4800
2023-04-06T03:03:38.211Z,967.4800
2023-04-06T03:04:40.502Z,967.4800
2023-04-06T03:05:42.888Z,967.4800
2023-04-06T03:06:45.211Z,967.4600
2023-04-06T03:07:45.413Z,967.4400
2023-04-06T03:08:47.692Z,967.4400
2023-04-06T03:09:49.971Z,967.4400
2023-04-06T03:10:52.272Z,967.4200
2023-04-06T03:11:54.508Z,967.4200
2023-04-06T03:12:56.768Z,967.4400
2023-04-06T03:13:59.072Z,967.4400
2023-04-06T03:14:59.206Z,967.4200
2023-04-06T03:16:01.699Z,967.4200
2023-04-06T03:17:01.679Z,967.4200
2023-04-06T03:18:03.948Z,967.4000
2023-04-06T03:19:06.449Z,967.4200
2023-04-06T03:20:08.398Z,967.4200
2023-04-06T03:21:10.659Z,967.4200
2023-04-06T03:22:10.723Z,967.4000
2023-04-06T03:23:12.969Z,967.4000
2023-04-06T03:24:15.164Z,967.4000
2023-04-06T03:25:17.396Z,967.4200
2023-04-06T03:26:19.770Z,967.4000
2023-04-06T03:27:21.869Z,967.4200
2023-04-06T03:28:24.098Z,967.4200
2023-04-06T03:29:26.320Z,967.4000
2023-04-06T03:30:28.548Z,967.4400
2023-04-06T03:31:30.987Z,967.4000
2023-04-06T03:32:31.069Z,967.4200
2023-04-06T03:33:33.375Z,967.4600
2023-04-06T03:34:35.704Z,967.4600
2023-04-06T03:35:38.169Z,967.4200
2023-04-06T03:36:40.428Z,967.4400
2023-04-06T03:37:42.706Z,967.4800
2023-04-06T03:38:42.909Z,967.4600
2023-04-06T03:39:45.162Z,967.4600
2023-04-06T03:40:47.437Z,967.4400
2023-04-06T03:41:49.725Z,967.4600
2023-04-06T03:42:52.004Z,967.5000
2023-04-06T03:43:54.319Z,967.5000
2023-04-06T03:44:54.512Z,967.5000
2023-04-06T03:45:56.802Z,967.5200
2023-04-06T03:46:59.280Z,967.5400
2023-04-06T03:48:01.424Z,967.5200
2023-04-06T03:49:03.674Z,967.5200
2023-04-06T03:50:03.837Z,967.5400
2023-04-06T03:51:06.168Z,967.5400
2023-04-06T03:52:08.490Z,967.5600
2023-04-06T03:53:10.805Z,967.5800
2023-04-06T03:54:13.147Z,967.5800
2023-04-06T03:55:15.446Z,967.5800
2023-04-06T03:56:15.615Z,967.5800
2023-04-06T03:57:18.041Z,967.5800
2023-04-06T03:58:20.260Z,967.5800
2023-04-06T03:59:22.676Z,967.5800
2023-04-06T04:00:24.970Z,967.5600
2023-04-06T04:01:27.304Z,967.5800
2023-04-06T04:02:27.663Z,967.6000
2023-04-06T04:03:29.994Z,967.5800
2023-04-06T04:04:32.329Z,967.6000
2023-04-06T04:05:34.699Z,967.6000
2023-04-06T04:06:34.931Z,967.6000
2023-04-06T04:07:37.377Z,967.5800
2023-04-06T04:08:39.603Z,967.6000
2023-04-06T04:09:41.961Z,967.5800
2023-04-06T04:10:44.259Z,967.5800
2023-04-06T04:11:46.579Z,967.6000
2023-04-06T04:12:46.772Z,967.5800
2023-04-06T04:13:49.077Z,967.6000
2023-04-06T04:14:51.404Z,967.6000
2023-04-06T04:15:53.745Z,967.6000
2023-04-06T04:16:56.162Z,967.6000
2023-04-06T04:17:56.296Z,967.5800
2023-04-06T04:18:58.554Z,967.6200
2023-04-06T04:20:00.931Z,967.6000
2023-04-06T04:21:03.259Z,967.6200
2023-04-06T04:22:05.633Z,967.6200
2023-04-06T04:23:06.000Z,967.6000
2023-04-06T04:24:08.269Z,967.6000
2023-04-06T04:25:10.664Z,967.6000
2023-04-06T04:27:39.034Z,967.6200
2023-04-06T04:28:39.328Z,967.6400
2023-04-06T04:29:41.389Z,967.6600
2023-04-06T04:30:43.609Z,967.6400
2023-04-06T04:31:45.922Z,967.6400
2023-04-06T04:32:48.240Z,967.6400
2023-04-06T04:33:50.595Z,967.6400
2023-04-06T04:34:52.848Z,967.6600
2023-04-06T04:35:52.999Z,967.6600
2023-04-06T04:36:55.228Z,967.6600
2023-04-06T04:37:57.584Z,967.6600
2023-04-06T04:39:00.098Z,967.6600
2023-04-06T04:40:02.347Z,967.6800
2023-04-06T04:41:04.738Z,967.6600
2023-04-06T04:42:04.963Z,967.7000
2023-04-06T04:43:07.333Z,967.7200
2023-04-06T04:44:09.770Z,967.6800
2023-04-06T04:45:12.057Z,967.7200
2023-04-06T04:46:12.336Z,967.7600
2023-04-06T04:47:14.668Z,967.7600
2023-04-06T04:48:17.024Z,967.7400
2023-04-06T04:49:19.492Z,967.7400
2023-04-06T04:50:21.761Z,967.7600
2023-04-06T04:51:21.975Z,967.7600
2023-04-06T04:52:24.313Z,967.7800
2023-04-06T04:53:26.619Z,967.8000
2023-04-06T04:54:26.826Z,967.8000
2023-04-06T04:55:29.165Z,967.8000
2023-04-06T04:56:29.449Z,967.8000
2023-04-06T04:57:31.749Z,967.8000
2023-04-06T04:58:34.143Z,967.8000
2023-04-06T04:59:36.763Z,967.8000
2023-04-06T05:00:36.721Z,967.8200
2023-04-06T05:01:51.803Z,967.8300
2023-04-06T05:02:39.313Z,967.8500
2023-04-06T05:03:41.760Z,967.8500
2023-04-06T05:04:44.024Z,967.8500
2023-04-06T05:05:44.103Z,967.8700
2023-04-06T05:06:46.477Z,967.8700
2023-04-06T05:07:48.856Z,967.8900
2023-04-06T05:08:49.135Z,967.8700
2023-04-06T05:09:51.491Z,967.8700
2023-04-06T05:10:53.847Z,967.8700
2023-04-06T05:11:56.390Z,967.8900
2023-04-06T05:12:58.578Z,967.8900
2023-04-06T05:13:58.773Z,967.8900
2023-04-06T05:15:01.269Z,967.9100
2023-04-06T05:16:03.545Z,967.9100
2023-04-06T05:17:03.755Z,967.8900
2023-04-06T05:18:06.156Z,967.9100
2023-04-06T05:19:08.912Z,967.9300
2023-04-06T05:20:10.975Z,967.9700
2023-04-06T05:21:13.275Z,967.9700
2023-04-06T05:22:13.480Z,967.9500
2023-04-06T05:23:15.861Z,967.9700
2023-04-06T05:24:18.222Z,967.9900
2023-04-06T05:25:20.687Z,967.9900
2023-04-06T05:26:22.861Z,967.9900
2023-04-06T05:27:23.034Z,967.9900
2023-04-06T05:28:25.346Z,967.9900
2023-04-06T05:29:27.699Z,967.9700
2023-04-06T05:30:30.157Z,967.9900
2023-04-06T05:31:32.378Z,967.9900
2023-04-06T05:32:32.540Z,967.9900
2023-04-06T05:33:34.903Z,968.0300
2023-04-06T05:34:37.279Z,968.0500
2023-04-06T05:35:39.735Z,968.0500
2023-04-06T05:36:42.029Z,968.0900
2023-04-06T05:37:42.255Z,968.0700
2023-04-06T05:38:44.645Z,968.0900
2023-04-06T05:39:47.039Z,968.1100
2023-04-06T05:40:49.452Z,968.1100
2023-04-06T05:41:49.512Z,968.1100
2023-04-06T05:44:15.980Z,968.1300
2023-04-06T05:45:18.073Z,968.1500
2023-04-06T05:46:20.473Z,968.1500
2023-04-06T05:47:20.453Z,968.1500
2023-04-06T05:48:22.765Z,968.1500
2023-04-06T05:49:22.943Z,968.1300
2023-04-06T05:50:25.264Z,968.1500
2023-04-06T05:51:27.667Z,968.1100
2023-04-06T05:52:27.821Z,968.0700
2023-04-06T05:53:30.160Z,968.0500
2023-04-06T05:54:32.466Z,968.0500
2023-04-06T05:55:34.808Z,968.0700
2023-04-06T05:56:37.208Z,968.0300
2023-04-06T05:57:39.498Z,968.0500
2023-04-06T05:58:41.831Z,968.0500
2023-04-06T05:59:44.251Z,968.0900
2023-04-06T06:00:46.509Z,968.0900
2023-04-06T06:01:48.987Z,968.0700
2023-04-06T06:02:49.079Z,968.1300
2023-04-06T06:03:51.406Z,968.1300
2023-04-06T06:04:53.789Z,968.1700
2023-04-06T06:05:56.077Z,968.1500
2023-04-06T06:06:58.427Z,968.1700
2023-04-06T06:07:58.581Z,968.1700
2023-04-06T06:09:00.887Z,968.1900
2023-04-06T06:10:03.217Z,968.1900
2023-04-06T06:11:05.530Z,968.2100
2023-04-06T06:12:07.897Z,968.2100
2023-04-06T06:13:11.104Z,968.2100
2023-04-06T06:14:10.382Z,968.2300
2023-04-06T06:15:12.712Z,968.2100
2023-04-06T06:16:14.972Z,968.2500
2023-04-06T06:17:17.413Z,968.2500
2023-04-06T06:18:19.582Z,968.2100
2023-04-06T06:19:21.849Z,968.2500
2023-04-06T06:20:21.990Z,968.2500
2023-04-06T06:21:24.308Z,968.2500
2023-04-06T06:22:26.792Z,968.2500
2023-04-06T06:23:28.954Z,968.2300
2023-04-06T06:24:31.706Z,968.2500
2023-04-06T06:25:31.455Z,968.2700
2023-04-06T06:26:33.720Z,968.2500
2023-04-06T06:27:36.135Z,968.2500
2023-04-06T06:28:38.340Z,968.2900
2023-04-06T06:29:40.643Z,968.2700
2023-04-06T06:30:42.990Z,968.2900
2023-04-06T06:31:43.178Z,968.3000
2023-04-06T06:32:45.604Z,968.2700
2023-04-06T06:33:47.738Z,968.2500
2023-04-06T06:34:50.068Z,968.2900
2023-04-06T06:35:52.480Z,968.2900
2023-04-06T06:36:54.738Z,968.2500
2023-04-06T06:37:54.927Z,968.2700
2023-04-06T06:38:57.283Z,968.2700
2023-04-06T06:39:59.549Z,968.2900
2023-04-06T06:41:01.875Z,968.3000
2023-04-06T06:42:04.165Z,968.2900
2023-04-06T06:43:06.626Z,968.2900
2023-04-06T06:44:06.964Z,968.3200
2023-04-06T06:45:08.979Z,968.3000
2023-04-06T06:46:11.403Z,968.2700
2023-04-06T06:47:13.451Z,968.2900
2023-04-06T06:48:15.730Z,968.3000
2023-04-06T06:49:17.899Z,968.3000
2023-04-06T06:50:20.118Z,968.3000
2023-04-06T06:51:22.334Z,968.3200
2023-04-06T06:52:24.547Z,968.3200
2023-04-06T06:53:26.810Z,968.3400
2023-04-06T06:54:29.100Z,968.3200
2023-04-06T06:55:29.328Z,968.3200
2023-04-06T06:56:31.712Z,968.3400
2023-04-06T06:57:34.042Z,968.3600
2023-04-06T06:58:34.260Z,968.3200
2023-04-06T06:59:36.670Z,968.3200
2023-04-06T07:00:38.979Z,968.3400
2023-04-06T07:01:41.392Z,968.3200
2023-04-06T07:02:43.662Z,968.3400
2023-04-06T07:03:43.861Z,968.3400
2023-04-06T07:04:46.268Z,968.3400
2023-04-06T07:05:48.458Z,968.3400
2023-04-06T07:06:50.702Z,968.3200
2023-04-06T07:07:53.002Z,968.3400
2023-04-06T07:08:55.400Z,968.3600
2023-04-06T07:09:57.620Z,968.3400
2023-04-06T07:10:57.881Z,968.3200
2023-04-06T07:12:00.176Z,968.3200
2023-04-06T07:13:02.414Z,968.3200
2023-04-06T07:14:04.799Z,968.3600
2023-04-06T07:15:07.035Z,968.3400
2023-04-06T07:16:09.412Z,968.3400
2023-04-06T07:17:09.955Z,968.3400
2023-04-06T07:18:11.920Z,968.3600
2023-04-06T07:19:14.376Z,968.3600
2023-04-06T07:20:16.589Z,968.3600
2023-04-06T07:21:18.945Z,968.3600
2023-04-06T07:22:19.133Z,968.3600
2023-04-06T07:23:21.454Z,968.3400
2023-04-06T07:24:23.849Z,968.3600
2023-04-06T07:25:26.229Z,968.3200
2023-04-06T07:26:28.498Z,968.3000
2023-04-06T07:27:28.680Z,968.2700
2023-04-06T07:28:31.036Z,968.2300
2023-04-06T07:29:33.492Z,968.2700
2023-04-06T07:30:36.956Z,968.2300
2023-04-06T07:31:35.997Z,968.2300
2023-04-06T07:32:38.311Z,968.2500
2023-04-06T07:33:40.628Z,968.1900
2023-04-06T07:34:43.077Z,968.2100
2023-04-06T07:35:43.492Z,968.2300
2023-04-06T07:36:45.734Z,968.2100
2023-04-06T07:37:48.153Z,968.2100
2023-04-06T07:38:50.588Z,968.2300
2023-04-06T07:39:50.971Z,968.2100
2023-04-06T07:40:53.276Z,968.1900
2023-04-06T07:41:55.688Z,968.1900
2023-04-06T07:42:58.300Z,968.2100
2023-04-06T07:43:58.339Z,968.2100
2023-04-06T07:45:00.771Z,968.2100
2023-04-06T07:46:03.192Z,968.2100
2023-04-06T07:47:05.473Z,968.1900
2023-04-06T07:48:05.734Z,968.2300
2023-04-06T07:49:08.010Z,968.1700
2023-04-06T07:50:10.409Z,968.1900
2023-04-06T07:51:12.792Z,968.1300
2023-04-06T07:52:13.057Z,968.1700
2023-04-06T07:53:15.469Z,968.2100
2023-04-06T07:54:17.837Z,968.2100
2023-04-06T07:55:20.268Z,968.1900
2023-04-06T07:56:22.605Z,968.1900
2023-04-06T07:57:22.835Z,968.1300
2023-04-06T07:58:25.282Z,968.1100
2023-04-06T07:59:27.837Z,968.1500
2023-04-06T08:00:28.079Z,968.1500
2023-04-06T08:01:30.483Z,968.1700
2023-04-06T08:02:33.054Z,968.1700
2023-04-06T08:03:35.462Z,968.1900
2023-04-06T08:04:35.657Z,968.1700
2023-04-06T08:05:38.160Z,968.1700
2023-04-06T08:06:40.394Z,968.1300
2023-04-06T08:07:42.804Z,968.1700
2023-04-06T08:08:43.085Z,968.1700
2023-04-06T08:09:45.534Z,968.1500
2023-04-06T08:10:48.060Z,968.1300
2023-04-06T08:11:50.361Z,968.1100
2023-04-06T08:12:50.687Z,968.1500
2023-04-06T08:13:53.137Z,968.1700
2023-04-06T08:14:53.452Z,968.1500
2023-04-06T08:15:56.024Z,968.1500
2023-04-06T08:16:56.221Z,968.1700
2023-04-06T08:17:58.667Z,968.1300
2023-04-06T08:19:01.085Z,968.1100
2023-04-06T08:20:03.464Z,968.0900
2023-04-06T08:21:03.774Z,968.1100
2023-04-06T08:22:06.198Z,968.0700
2023-04-06T08:23:08.624Z,968.0500
2023-04-06T08:24:09.126Z,968.0700
2023-04-06T08:25:11.394Z,968.0700
2023-04-06T08:26:13.888Z,968.0700
2023-04-06T08:27:16.182Z,968.0700
2023-04-06T08:28:16.457Z,968.0700
2023-04-06T08:29:18.831Z,968.0500
2023-04-06T08:31:41.117Z,968.0700
2023-04-06T08:32:41.176Z,968.0700
2023-04-06T08:33:43.415Z,968.0700
2023-04-06T08:34:45.738Z,968.0900
2023-04-06T08:35:48.086Z,968.0500
2023-04-06T08:36:50.475Z,968.0900
2023-04-06T08:37:52.712Z,968.0700
2023-04-06T08:38:52.914Z,968.0700
2023-04-06T08:39:55.255Z,968.0500
2023-04-06T08:40:57.623Z,968.0900
2023-04-06T08:42:00.087Z,968.0900
2023-04-06T08:43:02.318Z,968.0500
2023-04-06T08:44:02.516Z,968.0500
2023-04-06T08:45:04.884Z,968.0500
2023-04-06T08:46:07.287Z,968.0700
2023-04-06T08:47:09.625Z,968.0300
2023-04-06T08:48:11.895Z,968.0300
2023-04-06T08:49:12.052Z,968.0500
2023-04-06T08:50:14.405Z,968.0500
2023-04-06T08:51:16.726Z,968.0500
2023-04-06T08:52:19.095Z,968.0300
2023-04-06T08:53:24.070Z,968.0500
2023-04-06T08:54:21.609Z,968.0700
2023-04-06T08:55:23.957Z,968.0700
2023-04-06T08:56:26.280Z,968.0500
2023-04-06T08:57:28.727Z,968.0100
2023-04-06T08:58:37.580Z,968.0300
2023-04-06T08:59:33.352Z,968.0500
2023-04-06T09:00:33.522Z,968.0100
2023-04-06T09:01:36.013Z,968.0100
2023-04-06T09:02:38.448Z,968.0300
2023-04-06T09:03:40.990Z,967.9900
2023-04-06T09:04:41.067Z,967.9700
2023-04-06T09:05:43.281Z,967.9900
2023-04-06T09:06:45.616Z,967.9900
2023-04-06T09:07:47.966Z,968.0100
2023-04-06T09:08:50.199Z,968.0100
2023-04-06T09:09:50.392Z,968.0300
2023-04-06T09:10:52.733Z,968.0100
2023-04-06T09:11:55.062Z,967.9700
2023-04-06T09:12:57.552Z,968.0300
2023-04-06T09:13:59.738Z,967.9900
2023-04-06T09:14:59.954Z,968.0300
2023-04-06T09:16:02.362Z,967.9900
2023-04-06T09:17:04.693Z,967.9700
2023-04-06T09:18:07.127Z,967.9500
2023-04-06T09:19:07.229Z,967.9300
2023-04-06T09:20:09.541Z,967.9500
2023-04-06T09:21:11.907Z,967.9300
2023-04-06T09:22:14.260Z,967.9500
2023-04-06T09:23:16.699Z,967.9100
2023-04-06T09:24:18.924Z,967.9100
2023-04-06T09:25:19.079Z,967.8700
2023-04-06T09:26:21.402Z,967.9100
2023-04-06T09:27:23.695Z,967.9500
2023-04-06T09:28:26.144Z,967.9500
2023-04-06T09:29:28.332Z,967.9100
2023-04-06T09:30:30.654Z,967.8900
2023-04-06T09:31:30.869Z,967.8900
2023-04-06T09:32:33.136Z,967.9100
2023-04-06T09:33:35.493Z,967.8900
2023-04-06T09:34:37.782Z,967.8900
2023-04-06T09:35:40.163Z,967.8900
2023-04-06T09:36:42.394Z,967.9500
2023-04-06T09:37:42.523Z,967.9300
2023-04-06T09:38:44.894Z,967.9300
2023-04-06T09:39:47.165Z,967.9100
2023-04-06T09:41:00.203Z,967.8900
2023-04-06T09:41:49.513Z,967.9100
2023-04-06T09:42:51.806Z,967.9100
2023-04-06T09:43:54.195Z,967.9100
2023-04-06T09:44:56.388Z,967.8500
2023-04-06T09:45:58.709Z,967.8300
2023-04-06T09:47:01.608Z,967.8300
2023-04-06T09:48:03.338Z,967.8200
2023-04-06T09:49:05.649Z,967.8300
2023-04-06T09:50:05.651Z,967.7800
2023-04-06T09:51:08.016Z,967.8000
2023-04-06T09:52:10.269Z,967.8200
2023-04-06T09:53:12.536Z,967.8500
2023-04-06T09:54:14.877Z,967.8200
2023-04-06T09:55:49.733Z,967.7800
2023-04-06T09:56:51.944Z,967.7600
2023-04-06T09:57:54.346Z,967.8200
2023-04-06T09:58:54.450Z,967.8000
2023-04-06T09:59:56.766Z,967.8300
2023-04-06T10:00:58.946Z,967.8300
2023-04-06T10:02:01.171Z,967.7800
2023-04-06T10:03:03.458Z,967.7600
2023-04-06T10:04:08.414Z,967.7600
2023-04-06T10:04:55.081Z,967.8300
2023-04-06T10:05:55.389Z,967.8300
2023-04-06T10:06:57.590Z,967.8700
2023-04-06T10:08:01.078Z,967.8300
2023-04-06T10:09:02.275Z,967.8200
2023-04-06T10:10:04.631Z,967.8200
2023-04-06T10:11:07.084Z,967.8500
2023-04-06T10:12:07.122Z,967.8200
2023-04-06T10:13:09.480Z,967.8300
2023-04-06T10:14:11.797Z,967.9100
2023-04-06T10:15:14.150Z,967.8500
2023-04-06T10:16:16.481Z,967.9300
2023-04-06T10:17:17.634Z,967.8000
2023-04-06T10:18:19.949Z,967.8000
2023-04-06T10:19:20.104Z,967.8000
2023-04-06T10:20:22.415Z,967.8000
2023-04-06T10:21:24.752Z,967.8200
2023-04-06T10:22:27.082Z,967.7800
2023-04-06T10:23:29.410Z,967.7400
2023-04-06T10:24:31.767Z,967.7600
2023-04-06T10:25:34.132Z,967.7800
2023-04-06T10:26:36.541Z,967.7600
2023-04-06T10:27:38.899Z,967.8000
2023-04-06T10:28:39.148Z,967.7400
2023-04-06T10:29:41.420Z,967.7000
2023-04-06T10:30:43.811Z,967.7400
2023-04-06T10:31:44.195Z,967.7200
2023-04-06T10:32:48.275Z,967.7200
2023-04-06T10:33:48.793Z,967.7200
2023-04-06T10:34:49.007Z,967.8000
2023-04-06T10:35:51.423Z,967.8200
2023-04-06T10:36:53.776Z,967.8200
2023-04-06T10:37:53.980Z,967.8200
2023-04-06T10:38:56.380Z,967.7600
2023-04-06T10:39:58.732Z,967.7600
2023-04-06T10:40:58.961Z,967.8300
2023-04-06T10:42:01.392Z,967.8500
2023-04-06T10:43:03.632Z,967.8200
2023-04-06T10:44:03.809Z,967.8000
2023-04-06T10:45:06.186Z,967.7800
2023-04-06T10:46:08.621Z,967.7800
2023-04-06T10:47:08.799Z,967.7600
2023-04-06T10:48:11.124Z,967.7400
2023-04-06T10:49:13.528Z,967.7600
2023-04-06T10:50:13.705Z,967.7600
2023-04-06T10:51:16.055Z,967.7800
2023-04-06T10:52:18.360Z,967.8000
2023-04-06T10:53:20.624Z,967.8200
2023-04-06T10:54:20.821Z,967.7800
2023-04-06T10:55:23.136Z,967.7800
2023-04-06T10:56:25.561Z,967.8000
2023-04-06T10:57:25.732Z,967.7600
2023-04-06T10:58:27.996Z,967.8500
2023-04-06T10:59:30.386Z,967.8000
2023-04-06T11:00:39.702Z,967.8000
2023-04-06T11:01:32.918Z,967.8000
2023-04-06T11:02:35.224Z,967.7800
2023-04-06T11:03:37.544Z,967.7800
2023-04-06T11:04:40.048Z,967.8000
2023-04-06T11:05:42.255Z,967.7800
2023-04-06T11:06:42.475Z,967.7600
2023-04-06T11:07:44.886Z,967.7200
2023-04-06T11:08:47.169Z,967.7200
2023-04-06T11:10:01.197Z,967.7000
2023-04-06T11:10:51.788Z,967.7200
2023-04-06T11:11:54.081Z,967.7200
2023-04-06T11:12:56.524Z,967.6800
2023-04-06T11:13:56.625Z,967.6800
2023-04-06T11:14:58.913Z,967.6800
2023-04-06T11:16:01.261Z,967.6400
2023-04-06T11:17:01.494Z,967.6400
2023-04-06T11:18:03.861Z,967.6000
2023-04-06T11:19:06.158Z,967.6000
2023-04-06T11:20:06.363Z,967.5600
2023-04-06T11:21:08.730Z,967.5400
2023-04-06T11:22:11.058Z,967.5000
2023-04-06T11:23:13.531Z,967.5200
2023-04-06T11:24:15.726Z,967.5000
2023-04-06T11:25:18.209Z,967.5200
2023-04-06T11:26:20.344Z,967.5200
2023-04-06T11:27:22.721Z,967.4800
2023-04-06T11:28:25.229Z,967.4800
2023-04-06T11:29:25.289Z,967.5200
2023-04-06T11:30:27.644Z,967.4800
2023-04-06T11:31:30.071Z,967.4800
2023-04-06T11:32:30.249Z,967.4400
2023-04-06T11:33:32.625Z,967.4600
2023-04-06T11:34:35.025Z,967.4400
2023-04-06T11:35:35.317Z,967.4800
2023-04-06T11:36:37.555Z,967.4600
2023-04-06T11:37:39.908Z,967.3800
2023-04-06T11:38:40.522Z,967.4000
2023-04-06T11:39:42.483Z,967.3800
2023-04-06T11:40:44.816Z,967.4600
2023-04-06T11:41:47.153Z,967.4400
2023-04-06T11:42:49.531Z,967.4400
2023-04-06T11:43:52.044Z,967.5000
2023-04-06T11:44:52.161Z,967.4800
2023-04-06T11:45:55.317Z,967.5000
2023-04-06T11:46:56.816Z,967.4600
2023-04-06T11:47:57.062Z,967.4600
2023-04-06T11:48:59.525Z,967.4400
2023-04-06T11:50:01.833Z,967.3800
2023-04-06T11:51:01.927Z,967.3800
2023-04-06T11:52:04.302Z,967.3800
2023-04-06T11:53:06.675Z,967.3800
2023-04-06T11:54:06.988Z,967.3500
2023-04-06T11:55:09.260Z,967.3500
2023-04-06T11:56:11.658Z,967.3500
2023-04-06T11:57:11.863Z,967.3300
2023-04-06T11:58:14.226Z,967.3300
2023-04-06T11:59:16.626Z,967.2700
2023-04-06T12:00:18.957Z,967.2700
2023-04-06T12:01:21.276Z,967.2700
2023-04-06T12:02:23.723Z,967.2700
2023-04-06T12:03:23.921Z,967.2500
2023-04-06T12:04:26.248Z,967.2500
2023-04-06T12:05:28.432Z,967.2500
2023-04-06T12:06:30.784Z,967.2300
2023-04-06T12:07:33.107Z,967.2100
2023-04-06T12:08:35.414Z,967.2700
2023-04-06T12:09:37.838Z,967.2100
2023-04-06T12:10:40.267Z,967.2100
2023-04-06T12:11:42.520Z,967.1900
2023-04-06T12:12:42.717Z,967.2300